Time;durP1;ratioP1;P1;durP2;ratioP2;P2;SDS_P1;SDS_P2;PMS_P1;PMS_P2;Temp;Humidity;BMP_temperature;BMP_pressure;BME280_temperature;BME280_humidity;BME280_pressure;Samples;Min_cycle;Max_cycle;Signal;HPM_P1;HPM_P2
2022/10/22 00:01:19;;;;;;;8.38;4.42;;;9.30;92.30;;;;;;1902409;75;21078;-59
2022/10/22 00:03:48;;;;;;;6.30;4.25;;;9.40;92.30;;;;;;1902377;75;21017;-59
2022/10/22 00:06:17;;;;;;;9.20;5.05;;;9.40;92.30;;;;;;1902617;75;21061;-58
2022/10/22 00:08:46;;;;;;;6.28;4.37;;;9.40;92.20;;;;;;1902371;75;21447;-58
2022/10/22 00:11:18;;;;;;;6.62;3.85;;;9.40;92.30;;;;;;1902198;75;21491;-58
2022/10/22 00:13:48;;;;;;;8.48;4.42;;;9.40;92.30;;;;;;1902301;75;21106;-58
2022/10/22 00:16:17;;;;;;;6.30;4.35;;;9.40;92.30;;;;;;1902368;75;21016;-58
2022/10/22 00:18:46;;;;;;;5.03;4.20;;;9.40;92.30;;;;;;1902396;75;21087;-59
2022/10/22 00:21:15;;;;;;;5.65;3.98;;;9.40;92.30;;;;;;1902248;75;21021;-58
2022/10/22 00:23:44;;;;;;;5.90;4.20;;;9.40;92.20;;;;;;1902398;75;21059;-58
2022/10/22 00:26:13;;;;;;;4.95;3.72;;;9.40;92.20;;;;;;1902400;75;20993;-58
2022/10/22 00:28:42;;;;;;;4.17;3.30;;;9.40;92.10;;;;;;1902499;75;21106;-58
2022/10/22 00:31:12;;;;;;;4.60;3.70;;;9.40;92.20;;;;;;1902197;75;21098;-58
2022/10/22 00:33:41;;;;;;;6.35;3.75;;;9.40;92.20;;;;;;1902300;75;21020;-58
2022/10/22 00:36:11;;;;;;;4.55;3.72;;;9.40;92.20;;;;;;1902294;75;21087;-58
2022/10/22 00:38:40;;;;;;;5.50;4.20;;;9.30;92.10;;;;;;1902375;75;21017;-58
2022/10/22 00:41:09;;;;;;;4.20;3.65;;;9.30;92.10;;;;;;1902385;75;21016;-58
2022/10/22 00:43:56;;;;;;;4.17;3.17;;;9.20;92.10;;;;;;1902366;75;21720;-59
2022/10/22 00:46:25;;;;;;;6.47;3.90;;;9.20;92.10;;;;;;1902411;75;21016;-59
2022/10/22 00:48:56;;;;;;;5.05;4.00;;;9.20;92.20;;;;;;1902230;75;21400;-59
2022/10/22 00:51:28;;;;;;;4.65;3.85;;;9.20;92.30;;;;;;1902210;75;21032;-58
2022/10/22 00:54:00;;;;;;;4.53;3.70;;;9.20;92.10;;;;;;1902225;75;21078;-59
2022/10/22 00:56:29;;;;;;;4.37;3.67;;;9.20;92.10;;;;;;1902379;75;21090;-58
2022/10/22 00:59:00;;;;;;;5.33;3.80;;;9.20;92.10;;;;;;1902274;75;21076;-58
2022/10/22 01:01:31;;;;;;;5.28;3.87;;;9.10;91.70;;;;;;1902315;75;21021;-58
2022/10/22 01:04:00;;;;;;;4.10;3.22;;;9.10;92.10;;;;;;1902280;75;21013;-58
2022/10/22 01:06:32;;;;;;;4.87;3.55;;;9.00;92.20;;;;;;1902231;75;21194;-58
2022/10/22 01:09:18;;;;;;;4.15;3.33;;;9.00;92.20;;;;;;1902339;75;21021;-58
2022/10/22 01:11:53;;;;;;;4.47;3.67;;;9.10;92.10;;;;;;1901202;75;21078;-59
2022/10/22 01:14:28;;;;;;;3.92;3.12;;;9.10;92.00;;;;;;1902462;75;21173;-58
2022/10/22 01:17:12;;;;;;;7.72;2.90;;;9.00;92.10;;;;;;1902389;75;21474;-58
2022/10/22 01:20:02;;;;;;;4.53;3.15;;;9.00;91.40;;;;;;1901832;75;20997;-58
2022/10/22 01:22:39;;;;;;;5.37;3.30;;;8.90;91.20;;;;;;1900594;75;21122;-58
2022/10/22 01:25:29;;;;;;;5.47;3.00;;;8.70;91.80;;;;;;1896021;75;21110;-58
2022/10/22 01:28:30;;;;;;;4.40;3.27;;;8.60;91.50;;;;;;1902395;75;21090;-59
2022/10/22 01:31:01;;;;;;;3.50;3.08;;;8.50;91.90;;;;;;1902578;75;21038;-58
2022/10/22 01:33:31;;;;;;;3.70;3.05;;;8.50;92.20;;;;;;1902335;75;21070;-58
2022/10/22 01:36:01;;;;;;;6.35;2.83;;;8.50;92.10;;;;;;1902461;75;20988;-58
2022/10/22 01:38:30;;;;;;;3.37;2.75;;;8.50;91.70;;;;;;1902235;75;21112;-58
2022/10/22 01:41:00;;;;;;;3.37;3.08;;;8.40;91.60;;;;;;1902292;75;20992;-58
2022/10/22 01:43:29;;;;;;;3.98;3.00;;;8.40;92.00;;;;;;1902343;75;21102;-58
2022/10/22 01:46:01;;;;;;;4.95;3.37;;;8.40;91.90;;;;;;1902339;75;21106;-58
2022/10/22 01:49:10;;;;;;;3.67;3.30;;;8.40;92.00;;;;;;1902384;75;21106;-58
2022/10/22 01:51:41;;;;;;;4.10;2.98;;;8.30;91.00;;;;;;1902208;75;21082;-58
2022/10/22 01:54:19;;;;;;;4.58;3.62;;;8.20;91.80;;;;;;1901048;75;21585;-58
2022/10/22 01:57:00;;;;;;;4.05;2.92;;;8.30;92.00;;;;;;1901650;75;20989;-58
2022/10/22 01:59:47;;;;;;;4.75;3.30;;;8.40;92.10;;;;;;1902312;75;21106;-59
2022/10/22 02:02:31;;;;;;;5.30;3.45;;;8.50;92.20;;;;;;1902267;75;21129;-58
2022/10/22 02:05:08;;;;;;;3.30;3.00;;;8.50;92.00;;;;;;1856632;75;21048;-58
2022/10/22 02:07:40;;;;;;;4.60;3.37;;;8.50;91.60;;;;;;1895311;75;21068;-58
2022/10/22 02:10:11;;;;;;;6.58;4.10;;;8.50;91.90;;;;;;1902075;75;21025;-58
2022/10/22 02:12:43;;;;;;;7.00;3.90;;;8.40;92.10;;;;;;1902238;75;21087;-59
2022/10/22 02:15:13;;;;;;;6.45;3.37;;;8.50;92.30;;;;;;1902194;75;21082;-59
2022/10/22 02:17:44;;;;;;;7.50;4.10;;;8.50;91.90;;;;;;1902389;75;21110;-58
2022/10/22 02:20:19;;;;;;;3.60;3.00;;;8.40;91.50;;;;;;1902198;75;21079;-58
2022/10/22 02:22:48;;;;;;;6.30;3.42;;;8.30;91.60;;;;;;1902622;75;21028;-58
2022/10/22 02:25:17;;;;;;;7.60;4.12;;;8.20;92.00;;;;;;1902319;75;21048;-58
2022/10/22 02:27:49;;;;;;;5.35;4.22;;;8.20;92.30;;;;;;1902320;75;21068;-58
2022/10/22 02:30:21;;;;;;;6.95;3.83;;;8.30;92.40;;;;;;1901676;75;21526;-58
2022/10/22 02:32:58;;;;;;;4.55;4.15;;;8.30;92.00;;;;;;1902015;75;21008;-58
2022/10/22 02:35:30;;;;;;;4.65;3.52;;;8.40;92.50;;;;;;1901078;75;21102;-58
2022/10/22 02:37:59;;;;;;;4.70;4.20;;;8.40;92.40;;;;;;1901989;75;21094;-58
2022/10/22 02:40:30;;;;;;;5.90;4.22;;;8.40;92.10;;;;;;1901983;75;21033;-58
2022/10/22 02:42:59;;;;;;;5.05;3.98;;;8.40;92.20;;;;;;1901851;75;21075;-58
2022/10/22 02:45:28;;;;;;;4.17;3.37;;;8.40;92.30;;;;;;1901841;75;21086;-58
2022/10/22 02:47:58;;;;;;;5.50;3.42;;;8.40;92.30;;;;;;1901940;75;21115;-58
2022/10/22 02:50:27;;;;;;;5.95;3.90;;;8.40;92.40;;;;;;1901784;75;21134;-58
2022/10/22 02:52:56;;;;;;;5.05;3.80;;;8.50;92.50;;;;;;1901958;75;21036;-58
2022/10/22 02:55:25;;;;;;;6.12;4.28;;;8.50;92.30;;;;;;1901808;75;21020;-58
2022/10/22 02:57:54;;;;;;;8.40;4.37;;;8.50;92.20;;;;;;1901891;75;21044;-58
2022/10/22 03:00:23;;;;;;;7.92;4.10;;;8.40;92.10;;;;;;1901920;75;21036;-58
2022/10/22 03:02:52;;;;;;;5.80;3.87;;;8.40;92.30;;;;;;1901886;75;21020;-58
2022/10/22 03:05:21;;;;;;;9.35;5.00;;;8.40;92.40;;;;;;1901771;75;21041;-58
2022/10/22 03:07:50;;;;;;;5.42;3.83;;;8.50;92.50;;;;;;1909322;75;21126;-58
2022/10/22 03:10:19;;;;;;;7.05;3.58;;;8.50;92.40;;;;;;1914432;75;21039;-58
2022/10/22 03:12:48;;;;;;;3.98;3.58;;;8.40;91.90;;;;;;1914594;75;21004;-58
2022/10/22 03:15:18;;;;;;;5.20;3.52;;;8.40;92.20;;;;;;1914651;75;21447;-58
2022/10/22 03:17:47;;;;;;;3.98;3.22;;;8.30;92.10;;;;;;1914465;75;21118;-58
2022/10/22 03:20:17;;;;;;;6.17;3.35;;;8.20;92.30;;;;;;1914527;75;21150;-58
2022/10/22 03:22:47;;;;;;;4.28;3.20;;;8.20;92.10;;;;;;1914479;75;21087;-58
2022/10/22 03:25:19;;;;;;;3.52;3.22;;;8.20;92.40;;;;;;1914414;75;21133;-58
2022/10/22 03:27:49;;;;;;;5.37;3.37;;;8.20;92.40;;;;;;1914398;75;21095;-58
2022/10/22 03:30:18;;;;;;;5.35;3.70;;;8.20;92.50;;;;;;1914239;75;21074;-58
2022/10/22 03:32:47;;;;;;;6.60;3.75;;;8.20;92.40;;;;;;1914464;75;21174;-58
2022/10/22 03:35:16;;;;;;;4.03;3.00;;;8.20;92.40;;;;;;1914441;75;21133;-58
2022/10/22 03:37:45;;;;;;;4.53;3.42;;;8.30;92.30;;;;;;1914377;75;21012;-58
2022/10/22 03:40:14;;;;;;;5.62;3.67;;;8.20;92.00;;;;;;1914506;75;21016;-58
2022/10/22 03:42:43;;;;;;;6.67;4.00;;;8.10;91.70;;;;;;1914498;75;21044;-58
2022/10/22 03:45:12;;;;;;;3.58;3.00;;;8.00;92.20;;;;;;1914605;75;21104;-58
2022/10/22 03:47:41;;;;;;;5.28;3.52;;;8.00;92.40;;;;;;1914570;75;21494;-58
2022/10/22 03:50:11;;;;;;;6.42;4.03;;;8.00;92.50;;;;;;1914728;75;21047;-58
2022/10/22 03:52:41;;;;;;;4.10;3.70;;;8.10;92.60;;;;;;1914820;75;21000;-58
2022/10/22 03:55:10;;;;;;;4.10;3.47;;;8.10;92.70;;;;;;1914910;75;21107;-58
2022/10/22 03:57:39;;;;;;;4.67;3.27;;;8.20;92.60;;;;;;1914792;75;21028;-58
2022/10/22 04:00:10;;;;;;;4.83;3.52;;;8.20;92.60;;;;;;1914767;75;21044;-59
2022/10/22 04:02:39;;;;;;;4.03;3.30;;;8.20;92.30;;;;;;1914832;75;21020;-58
2022/10/22 04:05:09;;;;;;;5.85;3.60;;;8.20;92.50;;;;;;1914856;75;21040;-58
2022/10/22 04:07:38;;;;;;;7.37;3.77;;;8.20;92.60;;;;;;1914730;75;21067;-58
2022/10/22 04:10:07;;;;;;;5.97;4.00;;;8.20;92.60;;;;;;1914656;75;21098;-58
2022/10/22 04:12:37;;;;;;;5.15;3.90;;;8.20;92.10;;;;;;1914910;75;21112;-58
2022/10/22 04:15:06;;;;;;;7.83;4.22;;;8.10;91.90;;;;;;1914757;75;21017;-58
2022/10/22 04:17:36;;;;;;;5.97;3.90;;;8.00;92.10;;;;;;1914854;75;21036;-58
2022/10/22 04:20:06;;;;;;;5.70;4.03;;;7.90;92.20;;;;;;1914750;75;21032;-58
2022/10/22 04:22:35;;;;;;;5.55;4.75;;;7.80;92.50;;;;;;1914759;75;21086;-58
2022/10/22 04:25:05;;;;;;;5.67;3.90;;;7.90;92.70;;;;;;1914731;75;21031;-58
2022/10/22 04:27:34;;;;;;;5.08;4.00;;;8.00;93.00;;;;;;1914739;75;21110;-58
2022/10/22 04:30:05;;;;;;;5.28;4.47;;;8.10;92.40;;;;;;1914671;75;21089;-58
2022/10/22 04:32:34;;;;;;;5.80;4.62;;;8.00;91.50;;;;;;1914733;75;21016;-58
2022/10/22 04:35:04;;;;;;;6.33;4.70;;;8.00;92.30;;;;;;1914688;75;21023;-58
2022/10/22 04:37:33;;;;;;;10.65;7.05;;;8.00;92.50;;;;;;1914927;75;21094;-58
2022/10/22 04:40:02;;;;;;;5.10;4.60;;;8.10;91.70;;;;;;1914824;75;21032;-58
2022/10/22 04:42:32;;;;;;;5.47;4.67;;;7.90;91.20;;;;;;1914737;75;21072;-59
2022/10/22 04:45:01;;;;;;;5.20;4.67;;;7.80;91.80;;;;;;1914785;75;21016;-58
2022/10/22 04:47:30;;;;;;;8.15;4.50;;;7.80;91.70;;;;;;1914860;75;21044;-58
2022/10/22 04:49:59;;;;;;;5.95;4.45;;;7.70;92.20;;;;;;1914792;75;20992;-58
2022/10/22 04:52:29;;;;;;;5.85;4.00;;;7.80;92.40;;;;;;1914946;75;21028;-58
2022/10/22 04:54:58;;;;;;;5.75;4.15;;;7.90;92.60;;;;;;1914745;75;21031;-58
2022/10/22 04:57:31;;;;;;;7.35;4.47;;;8.00;92.80;;;;;;1914797;75;21021;-58
2022/10/22 05:00:01;;;;;;;8.08;5.10;;;8.10;92.70;;;;;;1914701;75;21060;-58
2022/10/22 05:02:30;;;;;;;7.58;5.28;;;8.20;92.30;;;;;;1914931;75;21019;-58
2022/10/22 05:04:59;;;;;;;7.78;5.08;;;8.30;92.50;;;;;;1914867;75;21040;-58
2022/10/22 05:07:28;;;;;;;7.35;5.28;;;8.40;92.60;;;;;;1915011;75;21078;-59
2022/10/22 05:09:57;;;;;;;7.17;4.60;;;8.50;92.60;;;;;;1903120;75;21138;-59
2022/10/22 05:12:28;;;;;;;5.92;3.67;;;8.60;92.40;;;;;;1902115;75;21216;-58
2022/10/22 05:14:57;;;;;;;5.35;4.03;;;8.70;92.10;;;;;;1902326;75;21520;-59
2022/10/22 05:17:26;;;;;;;4.45;4.05;;;8.70;92.10;;;;;;1902298;75;21091;-58
2022/10/22 05:19:55;;;;;;;8.28;4.97;;;8.70;92.00;;;;;;1902020;75;21021;-58
2022/10/22 05:22:25;;;;;;;5.70;3.87;;;8.80;92.00;;;;;;1901928;75;20993;-59
2022/10/22 05:24:54;;;;;;;6.22;4.30;;;8.80;92.00;;;;;;1901870;75;21028;-58
2022/10/22 05:27:24;;;;;;;8.65;4.30;;;8.90;91.70;;;;;;1901881;75;21094;-58
2022/10/22 05:29:53;;;;;;;6.60;3.87;;;8.90;91.70;;;;;;1901854;75;21040;-58
2022/10/22 05:32:22;;;;;;;4.50;3.55;;;9.00;91.80;;;;;;1901763;75;21029;-58
2022/10/22 05:34:52;;;;;;;9.43;5.28;;;9.00;91.90;;;;;;1901842;75;21052;-58
2022/10/22 05:37:21;;;;;;;11.20;4.03;;;9.10;92.00;;;;;;1901836;75;21024;-58
2022/10/22 05:39:50;;;;;;;9.03;4.03;;;9.20;91.70;;;;;;1902005;75;21020;-58
2022/10/22 05:42:19;;;;;;;5.50;3.95;;;9.30;90.90;;;;;;1902165;75;21016;-59
2022/10/22 05:44:49;;;;;;;12.30;2.98;;;9.30;91.30;;;;;;1902133;75;20988;-58
2022/10/22 05:47:18;;;;;;;5.28;3.65;;;9.40;92.20;;;;;;1902237;75;21075;-59
2022/10/22 05:49:47;;;;;;;21.70;9.20;;;9.70;92.30;;;;;;1902208;75;21076;-59
